createdAt,value
2023-02-06T00:01:32.752Z,100.00
2023-02-06T00:04:00.782Z,100.00
2023-02-06T00:06:28.758Z,100.00
2023-02-06T00:08:56.645Z,100.00
2023-02-06T00:11:24.907Z,100.00
2023-02-06T00:13:53.049Z,100.00
2023-02-06T00:16:23.434Z,100.00
2023-02-06T00:18:53.379Z,100.00
2023-02-06T00:21:22.556Z,100.00
2023-02-06T00:23:50.698Z,100.00
2023-02-06T00:26:21.785Z,100.00
2023-02-06T00:28:52.229Z,100.00
2023-02-06T00:31:21.246Z,100.00
2023-02-06T00:33:53.576Z,100.00
2023-02-06T00:36:22.575Z,100.00
2023-02-06T00:38:53.768Z,100.00
2023-02-06T00:41:22.579Z,100.00
2023-02-06T00:43:54.574Z,100.00
2023-02-06T00:46:25.998Z,100.00
2023-02-06T00:48:57.827Z,100.00
2023-02-06T00:51:27.124Z,100.00
2023-02-06T00:53:56.034Z,100.00
2023-02-06T00:56:23.883Z,100.00
2023-02-06T00:58:51.697Z,100.00
2023-02-06T01:01:19.557Z,100.00
2023-02-06T01:03:47.389Z,100.00
2023-02-06T01:06:16.865Z,100.00
2023-02-06T01:08:44.723Z,100.00
2023-02-06T01:11:13.580Z,100.00
2023-02-06T01:13:42.034Z,100.00
2023-02-06T01:16:10.838Z,100.00
2023-02-06T01:18:38.874Z,100.00
2023-02-06T01:21:09.898Z,100.00
2023-02-06T01:23:40.293Z,100.00
2023-02-06T01:26:08.824Z,100.00
2023-02-06T01:28:37.514Z,100.00
2023-02-06T01:31:11.384Z,100.00
2023-02-06T01:33:39.534Z,100.00
2023-02-06T01:36:08.078Z,100.00
2023-02-06T01:38:36.075Z,100.00
2023-02-06T01:41:06.573Z,100.00
2023-02-06T01:43:38.057Z,100.00
2023-02-06T01:46:06.323Z,100.00
2023-02-06T01:48:39.651Z,100.00
2023-02-06T01:51:11.438Z,100.00
2023-02-06T01:53:41.585Z,100.00
2023-02-06T01:56:11.819Z,100.00
2023-02-06T01:58:43.557Z,100.00
2023-02-06T02:01:12.645Z,100.00
2023-02-06T02:03:43.665Z,100.00
2023-02-06T02:06:13.973Z,100.00
2023-02-06T02:08:43.348Z,100.00
2023-02-06T02:11:18.308Z,100.00
2023-02-06T02:13:46.484Z,100.00
2023-02-06T02:16:20.824Z,100.00
2023-02-06T02:19:04.109Z,100.00
2023-02-06T02:22:07.612Z,100.00
2023-02-06T02:25:02.613Z,100.00
2023-02-06T02:27:45.730Z,100.00
2023-02-06T02:30:38.240Z,100.00
2023-02-06T02:33:26.931Z,100.00
2023-02-06T02:36:04.096Z,100.00
2023-02-06T02:38:44.089Z,100.00
2023-02-06T02:41:20.164Z,100.00
2023-02-06T02:43:54.952Z,100.00
2023-02-06T02:46:27.534Z,100.00
2023-02-06T02:49:02.132Z,100.00
2023-02-06T02:51:33.223Z,100.00
2023-02-06T02:54:00.986Z,100.00
2023-02-06T02:56:30.390Z,100.00
2023-02-06T02:59:01.423Z,100.00
2023-02-06T03:01:34.640Z,100.00
2023-02-06T03:04:09.096Z,100.00
2023-02-06T03:06:51.573Z,100.00
2023-02-06T03:09:29.551Z,100.00
2023-02-06T03:12:11.549Z,100.00
2023-02-06T03:14:45.217Z,100.00
2023-02-06T03:17:19.657Z,100.00
2023-02-06T03:19:53.792Z,100.00
2023-02-06T03:22:25.540Z,100.00
2023-02-06T03:24:55.048Z,100.00
2023-02-06T03:27:24.737Z,100.00
2023-02-06T03:29:55.323Z,100.00
2023-02-06T03:32:26.282Z,100.00
2023-02-06T03:34:59.014Z,100.00
2023-02-06T03:37:30.363Z,100.00
2023-02-06T03:40:01.619Z,100.00
2023-02-06T03:42:31.861Z,100.00
2023-02-06T03:45:07.299Z,100.00
2023-02-06T03:47:37.514Z,100.00
2023-02-06T03:50:08.135Z,100.00
2023-02-06T03:52:41.860Z,100.00
2023-02-06T03:55:14.121Z,100.00
2023-02-06T03:57:45.216Z,100.00
2023-02-06T04:00:14.259Z,100.00
2023-02-06T04:02:43.663Z,100.00
2023-02-06T04:05:11.408Z,100.00
2023-02-06T04:07:40.870Z,100.00
2023-02-06T04:10:09.087Z,100.00
2023-02-06T04:12:36.919Z,100.00
2023-02-06T04:15:05.515Z,100.00
2023-02-06T04:17:49.834Z,100.00
2023-02-06T04:20:21.625Z,100.00
2023-02-06T04:22:50.932Z,100.00
2023-02-06T04:25:18.857Z,100.00
2023-02-06T04:27:46.822Z,100.00
2023-02-06T04:30:15.678Z,100.00
2023-02-06T04:32:43.428Z,100.00
2023-02-06T04:35:11.646Z,100.00
2023-02-06T04:37:39.544Z,100.00
2023-02-06T04:40:09.473Z,100.00
2023-02-06T04:42:37.384Z,100.00
2023-02-06T04:45:05.635Z,100.00
2023-02-06T04:47:33.562Z,100.00
2023-02-06T04:50:01.451Z,100.00
2023-02-06T04:52:29.571Z,100.00
2023-02-06T04:54:57.319Z,100.00
2023-02-06T04:57:26.717Z,100.00
2023-02-06T04:59:54.498Z,100.00
2023-02-06T05:02:22.113Z,100.00
2023-02-06T05:04:49.854Z,100.00
2023-02-06T05:07:17.952Z,100.00
2023-02-06T05:09:46.722Z,100.00
2023-02-06T05:12:14.877Z,100.00
2023-02-06T05:14:43.928Z,100.00
2023-02-06T05:17:11.712Z,100.00
2023-02-06T05:19:39.581Z,100.00
2023-02-06T05:22:07.306Z,100.00
2023-02-06T05:24:35.238Z,100.00
2023-02-06T05:27:03.291Z,100.00
2023-02-06T05:29:31.002Z,100.00
2023-02-06T05:32:00.160Z,100.00
2023-02-06T05:34:28.108Z,100.00
2023-02-06T05:36:55.811Z,100.00
2023-02-06T05:39:23.593Z,100.00
2023-02-06T05:41:51.277Z,100.00
2023-02-06T05:44:18.978Z,100.00
2023-02-06T05:46:48.271Z,100.00
2023-02-06T05:49:18.020Z,100.00
2023-02-06T05:51:45.708Z,100.00
2023-02-06T05:54:16.911Z,100.00
2023-02-06T05:56:44.744Z,100.00
2023-02-06T05:59:12.804Z,100.00
2023-02-06T06:01:40.854Z,100.00
2023-02-06T06:04:08.846Z,100.00
2023-02-06T06:06:38.461Z,100.00
2023-02-06T06:09:06.310Z,100.00
2023-02-06T06:11:34.435Z,100.00
2023-02-06T06:14:02.224Z,100.00
2023-02-06T06:16:29.942Z,100.00
2023-02-06T06:18:57.809Z,100.00
2023-02-06T06:21:25.504Z,100.00
2023-02-06T06:23:55.226Z,100.00
2023-02-06T06:26:24.634Z,100.00
2023-02-06T06:28:52.539Z,100.00
2023-02-06T06:31:20.617Z,100.00
2023-02-06T06:33:48.587Z,100.00
2023-02-06T06:36:16.658Z,100.00
2023-02-06T06:38:44.295Z,100.00
2023-02-06T06:41:13.429Z,100.00
2023-02-06T06:43:42.498Z,100.00
2023-02-06T06:46:11.407Z,100.00
2023-02-06T06:48:41.606Z,100.00
2023-02-06T06:51:10.504Z,100.00
2023-02-06T06:53:40.109Z,100.00
2023-02-06T06:56:11.239Z,100.00
2023-02-06T06:58:41.189Z,100.00
2023-02-06T07:01:09.500Z,100.00
2023-02-06T07:03:37.777Z,100.00
2023-02-06T07:06:06.401Z,100.00
2023-02-06T07:08:35.884Z,100.00
2023-02-06T07:11:03.693Z,100.00
2023-02-06T07:13:31.484Z,100.00
2023-02-06T07:16:00.661Z,100.00
2023-02-06T07:18:28.730Z,100.00
2023-02-06T07:20:56.526Z,100.00
2023-02-06T07:23:24.310Z,100.00
2023-02-06T07:25:53.145Z,100.00
2023-02-06T07:28:20.867Z,100.00
2023-02-06T07:30:48.671Z,100.00
2023-02-06T07:33:17.901Z,100.00
2023-02-06T07:35:46.030Z,100.00
2023-02-06T07:38:13.747Z,100.00
2023-02-06T07:40:45.696Z,100.00
2023-02-06T07:43:14.372Z,100.00
2023-02-06T07:45:42.907Z,100.00
2023-02-06T07:48:11.206Z,100.00
2023-02-06T07:50:40.546Z,100.00
2023-02-06T07:53:08.810Z,100.00
2023-02-06T07:55:38.858Z,100.00
2023-02-06T07:58:06.760Z,100.00
2023-02-06T08:00:34.748Z,100.00
2023-02-06T08:03:02.664Z,100.00
2023-02-06T08:05:31.155Z,100.00
2023-02-06T08:08:00.626Z,100.00
2023-02-06T08:10:29.494Z,100.00
2023-02-06T08:12:57.672Z,100.00
2023-02-06T08:15:25.815Z,100.00
2023-02-06T08:17:53.799Z,100.00
2023-02-06T08:20:22.028Z,100.00
2023-02-06T08:22:49.949Z,100.00
2023-02-06T08:25:19.251Z,100.00
2023-02-06T08:27:48.402Z,100.00
2023-02-06T08:30:16.954Z,100.00
2023-02-06T08:32:45.151Z,100.00
2023-02-06T08:35:13.103Z,100.00
2023-02-06T08:37:41.714Z,100.00
2023-02-06T08:40:10.633Z,100.00
2023-02-06T08:42:39.760Z,100.00
2023-02-06T08:45:08.476Z,100.00
2023-02-06T08:47:36.171Z,100.00
2023-02-06T08:50:04.010Z,100.00
2023-02-06T08:52:31.874Z,100.00
2023-02-06T08:54:59.610Z,100.00
2023-02-06T08:57:27.254Z,100.00
2023-02-06T08:59:56.973Z,100.00
2023-02-06T09:02:24.876Z,100.00
2023-02-06T09:04:52.724Z,100.00
2023-02-06T09:07:21.651Z,100.00
2023-02-06T09:09:49.697Z,100.00
2023-02-06T09:12:17.905Z,100.00
2023-02-06T09:14:45.866Z,100.00
2023-02-06T09:17:15.214Z,100.00
2023-02-06T09:19:43.313Z,100.00
2023-02-06T09:22:11.333Z,100.00
2023-02-06T09:24:39.490Z,100.00
2023-02-06T09:27:07.436Z,100.00
2023-02-06T09:29:35.393Z,100.00
2023-02-06T09:32:03.260Z,100.00
2023-02-06T09:34:32.431Z,100.00
2023-02-06T09:37:03.185Z,100.00
2023-02-06T09:39:32.823Z,100.00
2023-02-06T09:42:07.042Z,100.00
2023-02-06T09:44:38.187Z,100.00
2023-02-06T09:47:18.330Z,100.00
2023-02-06T09:49:51.123Z,100.00
2023-02-06T09:52:31.658Z,100.00
2023-02-06T09:55:06.550Z,100.00
2023-02-06T09:57:42.460Z,100.00
2023-02-06T10:00:21.854Z,100.00
2023-02-06T10:03:07.910Z,100.00
2023-02-06T10:05:47.617Z,100.00
2023-02-06T10:08:22.728Z,100.00
2023-02-06T10:10:54.833Z,100.00
2023-02-06T10:13:27.196Z,100.00
2023-02-06T10:15:57.445Z,100.00
2023-02-06T10:18:30.613Z,100.00
2023-02-06T10:21:05.982Z,100.00
2023-02-06T10:23:38.292Z,100.00
2023-02-06T10:26:12.312Z,100.00
2023-02-06T10:28:41.497Z,100.00
2023-02-06T10:31:20.837Z,100.00
2023-02-06T10:33:55.936Z,100.00
2023-02-06T10:36:40.611Z,100.00
2023-02-06T10:39:22.579Z,100.00
2023-02-06T10:42:01.561Z,100.00
2023-02-06T10:44:36.095Z,100.00
2023-02-06T10:47:14.817Z,100.00
2023-02-06T10:49:48.153Z,100.00
2023-02-06T10:52:23.699Z,100.00
2023-02-06T10:54:54.804Z,100.00
2023-02-06T10:57:25.370Z,100.00
2023-02-06T10:59:58.747Z,100.00
2023-02-06T11:02:29.482Z,100.00
2023-02-06T11:05:04.492Z,100.00
2023-02-06T11:07:40.161Z,100.00
2023-02-06T11:10:09.536Z,100.00
2023-02-06T11:12:39.982Z,100.00
2023-02-06T11:15:17.555Z,100.00
2023-02-06T11:17:46.239Z,100.00
2023-02-06T11:20:21.826Z,100.00
2023-02-06T11:22:53.683Z,100.00
2023-02-06T11:25:26.826Z,100.00
2023-02-06T11:27:55.588Z,100.00
2023-02-06T11:30:31.409Z,100.00
2023-02-06T11:33:04.958Z,100.00
2023-02-06T11:35:38.302Z,100.00
2023-02-06T11:38:15.271Z,100.00
2023-02-06T11:40:43.103Z,100.00
2023-02-06T11:43:20.532Z,100.00
2023-02-06T11:45:52.303Z,100.00
2023-02-06T11:48:38.008Z,100.00
2023-02-06T11:51:07.464Z,100.00
2023-02-06T11:53:37.532Z,100.00
2023-02-06T11:56:15.320Z,100.00
2023-02-06T11:58:43.619Z,100.00
2023-02-06T12:01:19.914Z,100.00
2023-02-06T12:03:55.928Z,100.00
2023-02-06T12:06:31.270Z,100.00
2023-02-06T12:09:02.240Z,100.00
2023-02-06T12:11:35.794Z,100.00
2023-02-06T12:14:08.503Z,100.00
2023-02-06T12:16:40.694Z,100.00
2023-02-06T12:19:20.309Z,100.00
2023-02-06T12:21:50.936Z,100.00
2023-02-06T12:24:32.510Z,100.00
2023-02-06T12:27:03.382Z,100.00
2023-02-06T12:29:38.054Z,100.00
2023-02-06T12:32:14.961Z,99.95
2023-02-06T12:34:53.642Z,98.82
2023-02-06T12:37:31.449Z,96.88
2023-02-06T12:40:01.618Z,93.26
2023-02-06T12:42:38.346Z,95.67
2023-02-06T12:45:16.719Z,94.42
2023-02-06T12:47:51.313Z,96.60
2023-02-06T12:50:24.281Z,93.00
2023-02-06T12:52:57.083Z,91.45
2023-02-06T12:55:30.623Z,91.48
2023-02-06T12:57:59.386Z,90.04
2023-02-06T13:00:44.969Z,91.78
2023-02-06T13:03:29.790Z,88.71
2023-02-06T13:06:11.227Z,89.40
2023-02-06T13:08:47.550Z,86.95
2023-02-06T13:11:28.712Z,88.95
2023-02-06T13:14:06.614Z,91.67
2023-02-06T13:16:44.766Z,93.55
2023-02-06T13:19:32.343Z,95.35
2023-02-06T13:22:23.066Z,96.95
2023-02-06T13:24:52.183Z,94.51
2023-02-06T13:27:25.160Z,91.23
2023-02-06T13:29:54.648Z,91.09
2023-02-06T13:32:42.291Z,87.45
2023-02-06T13:35:22.385Z,87.53
2023-02-06T13:37:51.688Z,89.71
2023-02-06T13:40:30.521Z,89.98
2023-02-06T13:43:04.238Z,87.65
2023-02-06T13:45:36.009Z,88.67
2023-02-06T13:48:29.501Z,87.62
2023-02-06T13:51:09.780Z,88.73
2023-02-06T13:54:23.485Z,90.68
2023-02-06T13:57:19.237Z,92.18
2023-02-06T13:59:51.830Z,91.86
2023-02-06T14:02:27.501Z,92.46
2023-02-06T14:04:56.180Z,92.67
2023-02-06T14:07:56.798Z,87.19
2023-02-06T14:10:55.912Z,87.99
2023-02-06T14:13:38.311Z,88.83
2023-02-06T14:16:27.703Z,88.16
2023-02-06T14:19:02.317Z,90.55
2023-02-06T14:21:43.818Z,91.34
2023-02-06T14:24:29.073Z,89.63
2023-02-06T14:27:11.143Z,88.86
2023-02-06T14:29:47.066Z,88.15
2023-02-06T14:32:33.405Z,88.01
2023-02-06T14:35:20.446Z,90.19
2023-02-06T14:38:04.889Z,86.74
2023-02-06T14:40:39.638Z,87.89
2023-02-06T14:43:12.108Z,86.77
2023-02-06T14:45:43.404Z,85.72
2023-02-06T14:48:22.042Z,89.84
2023-02-06T14:50:53.925Z,88.60
2023-02-06T14:53:26.042Z,87.84
2023-02-06T14:56:06.268Z,88.50
2023-02-06T14:58:34.108Z,87.23
2023-02-06T15:01:14.848Z,87.93
2023-02-06T15:03:45.521Z,86.80
2023-02-06T15:06:16.723Z,87.38
2023-02-06T15:08:49.954Z,87.48
2023-02-06T15:11:24.334Z,87.71
2023-02-06T15:13:54.272Z,87.64
2023-02-06T15:16:22.679Z,88.12
2023-02-06T15:18:51.927Z,87.90
2023-02-06T15:21:22.045Z,85.92
2023-02-06T15:24:00.818Z,86.39
2023-02-06T15:26:35.542Z,87.54
2023-02-06T15:29:06.838Z,88.07
2023-02-06T15:31:35.650Z,88.30
2023-02-06T15:34:05.713Z,88.62
2023-02-06T15:36:37.909Z,90.47
2023-02-06T15:39:09.563Z,90.79
2023-02-06T15:41:38.864Z,91.78
2023-02-06T15:44:13.277Z,91.36
2023-02-06T15:46:41.683Z,92.29
2023-02-06T15:49:19.084Z,94.59
2023-02-06T15:51:55.154Z,94.92
2023-02-06T15:54:25.202Z,93.40
2023-02-06T15:56:57.402Z,94.33
2023-02-06T15:59:27.617Z,94.93
2023-02-06T16:01:58.660Z,93.72
2023-02-06T16:04:31.395Z,94.50
2023-02-06T16:07:03.344Z,94.51
2023-02-06T16:09:31.952Z,95.43
2023-02-06T16:12:00.127Z,95.74
2023-02-06T16:14:35.325Z,96.24
2023-02-06T16:17:07.171Z,98.04
2023-02-06T16:19:48.377Z,98.13
2023-02-06T16:22:25.393Z,97.77
2023-02-06T16:24:55.065Z,96.80
2023-02-06T16:27:25.776Z,96.15
2023-02-06T16:29:57.480Z,94.29
2023-02-06T16:32:29.345Z,93.09
2023-02-06T16:35:01.357Z,90.57
2023-02-06T16:37:32.008Z,88.36
2023-02-06T16:39:59.900Z,88.65
2023-02-06T16:42:34.295Z,88.82
2023-02-06T16:45:10.180Z,89.60
2023-02-06T16:47:38.148Z,88.48
2023-02-06T16:50:10.383Z,88.31
2023-02-06T16:52:41.646Z,88.23
2023-02-06T16:55:17.559Z,89.56
2023-02-06T16:57:46.897Z,88.74
2023-02-06T17:00:19.538Z,88.60
2023-02-06T17:02:47.681Z,89.59
2023-02-06T17:05:17.793Z,89.09
2023-02-06T17:07:46.431Z,89.68
2023-02-06T17:10:14.935Z,91.69
2023-02-06T17:12:45.077Z,92.95
2023-02-06T17:15:14.042Z,94.52
2023-02-06T17:17:42.251Z,95.01
2023-02-06T17:20:31.798Z,95.98
2023-02-06T17:23:00.548Z,96.89
2023-02-06T17:25:28.819Z,97.08
2023-02-06T17:27:56.744Z,97.62
2023-02-06T17:30:25.751Z,97.93
2023-02-06T17:32:53.618Z,98.29
2023-02-06T17:35:21.824Z,97.46
2023-02-06T17:37:51.607Z,96.78
2023-02-06T17:40:23.036Z,96.45
2023-02-06T17:42:51.136Z,96.52
2023-02-06T17:45:19.038Z,96.73
2023-02-06T17:47:47.811Z,96.93
2023-02-06T17:50:18.300Z,96.57
2023-02-06T17:52:46.059Z,97.10
2023-02-06T17:55:15.972Z,96.44
2023-02-06T17:57:43.724Z,94.46
2023-02-06T18:00:15.980Z,94.48
2023-02-06T18:02:43.856Z,94.69
2023-02-06T18:05:12.945Z,92.99
2023-02-06T18:07:41.186Z,95.73
2023-02-06T18:10:09.962Z,96.02
2023-02-06T18:12:39.711Z,96.23
2023-02-06T18:15:08.325Z,93.73
2023-02-06T18:17:36.054Z,93.97
2023-02-06T18:20:04.448Z,92.90
2023-02-06T18:22:39.929Z,91.38
2023-02-06T18:25:09.315Z,91.05
2023-02-06T18:27:37.303Z,90.20
2023-02-06T18:30:08.716Z,90.90
2023-02-06T18:32:38.719Z,90.05
2023-02-06T18:35:07.914Z,87.90
2023-02-06T18:37:36.285Z,86.36
2023-02-06T18:40:04.445Z,84.28
2023-02-06T18:42:49.774Z,83.93
2023-02-06T18:45:19.779Z,86.60
2023-02-06T18:47:47.692Z,86.11
2023-02-06T18:50:20.303Z,85.86
2023-02-06T18:52:48.606Z,86.86
2023-02-06T18:55:17.482Z,87.81
2023-02-06T18:57:45.591Z,88.83
2023-02-06T19:00:16.539Z,90.68
2023-02-06T19:02:46.354Z,91.12
2023-02-06T19:05:16.409Z,91.52
2023-02-06T19:07:44.525Z,91.23
2023-02-06T19:10:16.414Z,92.13
2023-02-06T19:12:45.021Z,92.10
2023-02-06T19:15:14.999Z,90.99
2023-02-06T19:17:43.340Z,92.11
2023-02-06T19:20:14.013Z,90.51
2023-02-06T19:22:42.007Z,91.19
2023-02-06T19:25:14.340Z,90.18
2023-02-06T19:27:43.832Z,90.40
2023-02-06T19:30:14.182Z,91.97
2023-02-06T19:32:43.509Z,91.81
2023-02-06T19:35:12.902Z,91.72
2023-02-06T19:37:41.550Z,91.56
2023-02-06T19:40:10.143Z,91.98
2023-02-06T19:42:39.324Z,91.44
2023-02-06T19:45:07.673Z,91.97
2023-02-06T19:47:36.299Z,92.21
2023-02-06T19:50:04.962Z,93.59
2023-02-06T19:52:35.346Z,94.32
2023-02-06T19:55:03.821Z,93.93
2023-02-06T19:57:31.682Z,93.25
2023-02-06T19:59:59.653Z,92.47
2023-02-06T20:02:28.097Z,93.18
2023-02-06T20:04:55.925Z,94.59
2023-02-06T20:07:23.736Z,95.14
2023-02-06T20:09:55.398Z,94.39
2023-02-06T20:12:23.174Z,94.61
2023-02-06T20:14:51.294Z,95.49
2023-02-06T20:17:22.639Z,96.22
2023-02-06T20:19:50.587Z,96.61
2023-02-06T20:22:19.997Z,95.74
2023-02-06T20:24:48.364Z,95.56
2023-02-06T20:27:17.745Z,95.64
2023-02-06T20:29:46.597Z,96.69
2023-02-06T20:32:16.641Z,97.03
2023-02-06T20:34:47.446Z,95.75
2023-02-06T20:37:18.013Z,96.29
2023-02-06T20:39:46.856Z,97.58
2023-02-06T20:42:15.717Z,98.05
2023-02-06T20:44:46.031Z,97.74
2023-02-06T20:47:13.983Z,98.83
2023-02-06T20:49:42.765Z,98.26
2023-02-06T20:52:10.801Z,97.27
2023-02-06T20:54:38.773Z,96.65
2023-02-06T20:57:06.618Z,97.26
2023-02-06T20:59:34.641Z,97.81
2023-02-06T21:02:03.890Z,95.87
2023-02-06T21:04:33.821Z,97.05
2023-02-06T21:07:01.678Z,97.28
2023-02-06T21:09:30.269Z,97.17
2023-02-06T21:11:58.184Z,97.38
2023-02-06T21:14:28.054Z,97.14
2023-02-06T21:16:55.872Z,97.75
2023-02-06T21:19:27.803Z,98.14
2023-02-06T21:21:56.807Z,98.63
2023-02-06T21:24:25.304Z,99.79
2023-02-06T21:26:53.588Z,100.00
2023-02-06T21:29:22.969Z,100.00
2023-02-06T21:31:55.742Z,100.00
2023-02-06T21:34:30.114Z,100.00
2023-02-06T21:36:58.134Z,100.00
2023-02-06T21:39:28.721Z,100.00
2023-02-06T21:41:57.532Z,100.00
2023-02-06T21:44:26.364Z,100.00
2023-02-06T21:46:55.881Z,100.00
2023-02-06T21:49:25.038Z,100.00
2023-02-06T21:51:56.087Z,100.00
2023-02-06T21:54:24.606Z,100.00
2023-02-06T21:56:52.860Z,100.00
2023-02-06T21:59:20.935Z,100.00
2023-02-06T22:01:48.916Z,100.00
2023-02-06T22:04:16.770Z,100.00
2023-02-06T22:06:44.625Z,100.00
2023-02-06T22:09:18.725Z,100.00
2023-02-06T22:11:46.883Z,100.00
2023-02-06T22:14:17.836Z,100.00
2023-02-06T22:16:47.073Z,100.00
2023-02-06T22:19:15.885Z,100.00
2023-02-06T22:21:43.937Z,100.00
2023-02-06T22:24:13.769Z,100.00
2023-02-06T22:26:42.768Z,100.00
2023-02-06T22:29:12.982Z,100.00
2023-02-06T22:31:43.069Z,100.00
2023-02-06T22:34:14.844Z,100.00
2023-02-06T22:36:43.888Z,100.00
2023-02-06T22:39:14.288Z,100.00
2023-02-06T22:41:43.672Z,100.00
2023-02-06T22:44:16.172Z,100.00
2023-02-06T22:46:45.337Z,100.00
2023-02-06T22:49:13.459Z,100.00
2023-02-06T22:51:57.139Z,100.00
2023-02-06T22:54:30.071Z,100.00
2023-02-06T22:56:58.121Z,100.00
2023-02-06T22:59:26.715Z,100.00
2023-02-06T23:01:58.836Z,100.00
2023-02-06T23:04:29.376Z,100.00
2023-02-06T23:06:57.991Z,100.00
2023-02-06T23:09:27.836Z,100.00
2023-02-06T23:11:58.892Z,100.00
2023-02-06T23:14:28.344Z,100.00
2023-02-06T23:16:56.282Z,100.00
2023-02-06T23:19:24.874Z,100.00
2023-02-06T23:21:52.783Z,100.00
2023-02-06T23:24:21.651Z,100.00
2023-02-06T23:26:51.366Z,100.00
2023-02-06T23:29:22.116Z,100.00
2023-02-06T23:31:50.432Z,100.00
2023-02-06T23:34:19.605Z,100.00
2023-02-06T23:36:48.726Z,100.00
2023-02-06T23:39:17.036Z,100.00
2023-02-06T23:41:44.888Z,100.00
2023-02-06T23:44:12.621Z,100.00
2023-02-06T23:46:42.542Z,100.00
2023-02-06T23:49:11.052Z,100.00
2023-02-06T23:51:39.229Z,100.00
2023-02-06T23:54:08.433Z,100.00
2023-02-06T23:56:36.349Z,100.00
2023-02-06T23:59:05.705Z,100.00
